createdAt,value
2023-01-20T00:03:01.696Z,5.03
2023-01-20T00:08:07.203Z,7.43
2023-01-20T00:13:11.939Z,6.30
2023-01-20T00:18:15.675Z,5.63
2023-01-20T00:23:20.085Z,5.17
2023-01-20T00:28:23.169Z,2.73
2023-01-20T00:33:26.461Z,4.33
2023-01-20T00:38:31.054Z,4.90
2023-01-20T00:43:34.193Z,4.57
2023-01-20T00:48:37.549Z,3.30
2023-01-20T00:53:42.252Z,7.87
2023-01-20T00:58:45.725Z,3.80
2023-01-20T01:03:49.053Z,4.53
2023-01-20T01:08:54.171Z,4.13
2023-01-20T01:13:57.773Z,4.10
2023-01-20T01:19:00.842Z,7.20
2023-01-20T01:24:05.626Z,3.67
2023-01-20T01:29:08.850Z,5.83
2023-01-20T01:34:12.139Z,5.70
2023-01-20T01:39:16.641Z,3.80
2023-01-20T01:44:20.774Z,7.23
2023-01-20T01:49:26.846Z,5.87
2023-01-20T01:54:34.928Z,7.10
2023-01-20T01:59:39.106Z,7.63
2023-01-20T02:04:42.847Z,8.67
2023-01-20T02:09:47.601Z,4.50
2023-01-20T02:14:54.099Z,6.17
2023-01-20T02:20:32.135Z,5.70
2023-01-20T02:26:04.264Z,4.27
2023-01-20T02:31:49.021Z,4.03
2023-01-20T02:36:58.394Z,4.63
2023-01-20T02:42:09.805Z,3.67
2023-01-20T02:47:16.314Z,5.80
2023-01-20T02:52:25.705Z,3.43
2023-01-20T02:57:34.059Z,3.83
2023-01-20T03:02:40.046Z,4.83
2023-01-20T03:07:46.906Z,12.53
2023-01-20T03:12:54.965Z,4.00
2023-01-20T03:17:59.036Z,5.73
2023-01-20T03:23:03.501Z,3.60
2023-01-20T03:28:06.831Z,2.60
2023-01-20T03:33:11.174Z,3.43
2023-01-20T03:38:16.032Z,3.83
2023-01-20T03:43:29.829Z,2.83
2023-01-20T03:48:41.299Z,3.60
2023-01-20T03:53:52.347Z,3.20
2023-01-20T03:58:58.997Z,7.43
2023-01-20T04:04:04.262Z,2.23
2023-01-20T04:09:12.491Z,2.87
2023-01-20T04:14:15.481Z,2.93
2023-01-20T04:19:18.608Z,3.07
2023-01-20T04:24:27.672Z,3.80
2023-01-20T04:29:30.753Z,4.00
2023-01-20T04:34:34.424Z,2.57
2023-01-20T04:39:39.062Z,2.40
2023-01-20T04:44:42.312Z,4.67
2023-01-20T04:49:45.770Z,2.70
2023-01-20T04:54:50.838Z,2.70
2023-01-20T04:59:54.013Z,2.83
2023-01-20T05:04:57.209Z,2.47
2023-01-20T05:10:02.965Z,6.53
2023-01-20T05:15:07.867Z,2.30
2023-01-20T05:20:12.367Z,3.67
2023-01-20T05:25:17.482Z,2.90
2023-01-20T05:30:21.339Z,2.10
2023-01-20T05:35:24.496Z,3.70
2023-01-20T05:40:29.232Z,3.73
2023-01-20T05:45:32.606Z,3.03
2023-01-20T05:50:35.715Z,9.03
2023-01-20T05:55:40.253Z,15.40
2023-01-20T06:00:43.470Z,9.60
2023-01-20T06:05:49.338Z,4.13
2023-01-20T06:10:55.527Z,7.60
2023-01-20T06:15:59.375Z,2.93
2023-01-20T06:21:02.986Z,6.50
2023-01-20T06:26:08.921Z,3.23
2023-01-20T06:31:14.117Z,6.00
2023-01-20T06:36:17.746Z,3.43
2023-01-20T06:41:22.911Z,2.77
2023-01-20T06:46:26.329Z,2.87
2023-01-20T06:51:31.073Z,5.23
2023-01-20T06:56:50.675Z,4.43
2023-01-20T07:01:54.278Z,3.20
2023-01-20T07:06:57.483Z,2.80
2023-01-20T07:12:02.117Z,2.30
2023-01-20T07:17:06.608Z,4.47
2023-01-20T07:22:09.728Z,2.90
2023-01-20T07:27:15.112Z,4.30
2023-01-20T07:32:18.208Z,2.43
2023-01-20T07:37:21.410Z,2.40
2023-01-20T07:42:25.960Z,3.63
2023-01-20T07:47:30.181Z,5.10
2023-01-20T07:52:33.271Z,8.47
2023-01-20T07:57:37.747Z,4.27
2023-01-20T08:02:41.331Z,4.27
2023-01-20T08:07:44.877Z,11.27
2023-01-20T08:12:49.550Z,16.47
2023-01-20T08:17:54.897Z,9.43
2023-01-20T08:22:58.176Z,11.00
2023-01-20T08:28:04.361Z,22.97
2023-01-20T08:33:08.532Z,20.07
2023-01-20T08:38:11.900Z,18.10
2023-01-20T08:43:16.510Z,15.93
2023-01-20T08:48:20.071Z,13.43
2023-01-20T08:53:23.116Z,12.50
2023-01-20T08:58:28.252Z,13.60
2023-01-20T09:03:33.102Z,14.13
2023-01-20T09:08:37.096Z,10.00
2023-01-20T09:13:41.829Z,9.10
2023-01-20T09:18:45.299Z,6.67
2023-01-20T09:23:48.843Z,6.83
2023-01-20T09:28:53.408Z,4.93
2023-01-20T09:33:56.925Z,10.73
2023-01-20T09:39:17.348Z,8.30
2023-01-20T09:44:44.254Z,3.63
2023-01-20T09:50:27.342Z,4.43
2023-01-20T09:55:39.848Z,3.87
2023-01-20T10:00:49.215Z,4.07
2023-01-20T10:05:57.781Z,3.60
2023-01-20T10:11:07.287Z,16.80
2023-01-20T10:16:13.517Z,8.17
2023-01-20T10:21:21.637Z,8.53
2023-01-20T10:26:30.750Z,7.43
2023-01-20T10:31:42.198Z,9.50
2023-01-20T10:36:50.598Z,4.93
2023-01-20T10:41:58.961Z,5.10
2023-01-20T10:47:22.528Z,4.40
2023-01-20T10:52:43.219Z,3.27
2023-01-20T10:57:50.795Z,3.83
2023-01-20T11:02:58.958Z,2.97
2023-01-20T11:08:04.389Z,2.87
2023-01-20T11:13:11.165Z,9.33
2023-01-20T11:18:23.759Z,10.67
2023-01-20T11:23:37.821Z,3.00
2023-01-20T11:28:51.998Z,2.83
2023-01-20T11:34:02.300Z,2.40
2023-01-20T11:39:25.090Z,6.93
2023-01-20T11:44:28.290Z,3.80
2023-01-20T11:49:32.865Z,5.43
2023-01-20T11:54:37.330Z,71.50
2023-01-20T11:59:49.817Z,11.17
2023-01-20T12:05:11.304Z,6.93
2023-01-20T12:10:18.726Z,4.73
2023-01-20T12:15:24.697Z,2.80
2023-01-20T12:20:45.574Z,3.73
2023-01-20T12:25:56.872Z,3.17
2023-01-20T12:31:01.589Z,5.50
2023-01-20T12:36:30.996Z,2.47
2023-01-20T12:41:59.512Z,4.03
2023-01-20T12:47:16.432Z,3.03
2023-01-20T12:52:39.148Z,2.50
2023-01-20T12:57:58.150Z,5.10
2023-01-20T13:03:33.099Z,1.40
2023-01-20T13:08:43.883Z,1.97
2023-01-20T13:14:11.923Z,1.87
2023-01-20T13:19:18.080Z,14.23
2023-01-20T13:24:29.342Z,5.17
2023-01-20T13:29:44.840Z,2.77
2023-01-20T13:34:47.992Z,3.63
2023-01-20T13:39:54.558Z,2.30
2023-01-20T13:45:19.226Z,1.33
2023-01-20T13:50:25.684Z,2.87
2023-01-20T13:55:31.200Z,14.00
2023-01-20T14:00:34.432Z,14.70
2023-01-20T14:05:37.785Z,5.93
2023-01-20T14:10:42.498Z,20.07
2023-01-20T14:15:51.531Z,9.27
2023-01-20T14:21:03.061Z,16.47
2023-01-20T14:26:14.352Z,75.80
2023-01-20T14:31:24.125Z,9.70
2023-01-20T14:36:31.269Z,21.10
2023-01-20T14:41:46.787Z,27.17
2023-01-20T14:46:53.284Z,56.80
2023-01-20T14:51:56.851Z,51.50
2023-01-20T14:57:19.246Z,64.03
2023-01-20T15:02:29.043Z,37.37
2023-01-20T15:07:32.176Z,53.03
2023-01-20T15:12:42.749Z,72.83
2023-01-20T15:18:16.552Z,53.23
2023-01-20T15:23:34.823Z,58.20
2023-01-20T15:28:45.359Z,40.67
2023-01-20T15:33:49.093Z,27.00
2023-01-20T15:38:52.440Z,37.73
2023-01-20T15:43:57.044Z,20.77
2023-01-20T15:49:00.541Z,15.87
2023-01-20T15:54:03.693Z,15.67
2023-01-20T15:59:13.773Z,9.20
2023-01-20T16:04:17.505Z,21.23
2023-01-20T16:09:27.500Z,10.83
2023-01-20T16:14:32.044Z,15.67
2023-01-20T16:19:36.568Z,96.87
2023-01-20T16:24:39.838Z,34.67
2023-01-20T16:29:44.562Z,19.67
2023-01-20T16:34:47.939Z,12.60
2023-01-20T16:39:51.095Z,16.20
2023-01-20T16:44:55.869Z,11.80
2023-01-20T16:49:59.129Z,13.53
2023-01-20T16:55:04.085Z,22.37
2023-01-20T17:00:10.315Z,15.67
2023-01-20T17:05:13.511Z,12.80
2023-01-20T17:10:17.442Z,17.43
2023-01-20T17:15:23.318Z,18.70
2023-01-20T17:20:27.561Z,35.30
2023-01-20T17:25:30.851Z,21.67
2023-01-20T17:30:35.418Z,19.83
2023-01-20T17:35:38.642Z,20.37
2023-01-20T17:40:41.912Z,18.67
2023-01-20T17:45:46.757Z,64.33
2023-01-20T17:50:50.045Z,102.83
2023-01-20T17:56:03.034Z,88.13
2023-01-20T18:01:17.819Z,109.20
2023-01-20T18:06:22.678Z,58.40
2023-01-20T18:11:27.695Z,57.80
2023-01-20T18:16:34.075Z,61.67
2023-01-20T18:21:38.764Z,61.83
2023-01-20T18:26:43.689Z,38.43
2023-01-20T18:31:48.742Z,35.63
2023-01-20T18:36:51.984Z,28.43
2023-01-20T18:41:55.513Z,22.80
2023-01-20T18:47:00.118Z,24.30
2023-01-20T18:52:03.328Z,24.20
2023-01-20T18:57:08.913Z,32.67
2023-01-20T19:02:13.930Z,23.07
2023-01-20T19:07:17.339Z,19.57
2023-01-20T19:12:20.765Z,132.83
2023-01-20T19:17:30.639Z,110.90
2023-01-20T19:22:33.790Z,25.27
2023-01-20T19:27:36.922Z,30.67
2023-01-20T19:32:43.074Z,21.13
2023-01-20T19:37:46.490Z,23.20
2023-01-20T19:42:52.620Z,27.30
2023-01-20T19:47:57.173Z,28.70
2023-01-20T19:53:00.338Z,22.37
2023-01-20T19:58:03.591Z,23.60
2023-01-20T20:03:08.574Z,24.67
2023-01-20T20:08:11.730Z,26.07
2023-01-20T20:13:16.797Z,24.73
2023-01-20T20:18:21.482Z,24.87
2023-01-20T20:23:26.321Z,19.83
2023-01-20T20:28:30.370Z,25.70
2023-01-20T20:33:36.478Z,21.63
2023-01-20T20:38:39.776Z,26.73
2023-01-20T20:43:45.225Z,23.90
2023-01-20T20:48:49.713Z,25.20
2023-01-20T20:53:55.899Z,23.43
2023-01-20T20:59:03.108Z,29.83
2023-01-20T21:04:08.693Z,32.97
2023-01-20T21:09:12.111Z,25.37
2023-01-20T21:14:15.364Z,24.17
2023-01-20T21:19:20.506Z,27.83
2023-01-20T21:24:29.080Z,25.40
2023-01-20T21:29:32.826Z,28.53
2023-01-20T21:34:37.391Z,31.23
2023-01-20T21:39:40.859Z,29.17
2023-01-20T21:44:44.310Z,26.57
2023-01-20T21:50:08.628Z,24.60
2023-01-20T21:55:16.076Z,23.30
2023-01-20T22:00:20.111Z,24.83
2023-01-20T22:05:24.905Z,20.43
2023-01-20T22:10:29.432Z,27.33
2023-01-20T22:15:34.411Z,26.33
2023-01-20T22:20:39.612Z,23.07
2023-01-20T22:25:43.350Z,25.30
2023-01-20T22:30:47.038Z,23.97
2023-01-20T22:35:55.686Z,25.87
2023-01-20T22:41:04.232Z,28.17
2023-01-20T22:46:07.962Z,22.80
2023-01-20T22:51:14.835Z,30.27
2023-01-20T22:56:19.809Z,26.60
2023-01-20T23:01:25.139Z,21.37
2023-01-20T23:06:33.208Z,22.80
2023-01-20T23:11:38.418Z,24.30
2023-01-20T23:16:42.295Z,32.50
2023-01-20T23:21:47.055Z,37.83
2023-01-20T23:26:52.523Z,33.10
2023-01-20T23:31:56.605Z,36.27
2023-01-20T23:37:01.445Z,46.47
2023-01-20T23:42:04.628Z,37.37
2023-01-20T23:47:10.409Z,40.10
2023-01-20T23:52:15.366Z,31.10
2023-01-20T23:57:18.767Z,36.60
